Pagrindinis puslapis
METAR-TAF:

METAR-TAF

Oro uostai :

Rafha, Saudo Arabija

platuma: 29-37N, ilguma: 043-29E, Aukštis: 449 m

Dabartinis oras

Ataskaita buvo paskelbta 1 valandą ir 9 minutes, ne 04:00 UTC
Vėjas 7 kt iš Vakarų/Šiaurės Vakarų
Temperatūra 30°C
Drėgmė 21%
Slėgis 1007 hPa
Matomumas 10 km arba daugiau
nėra debesų žemiau 1500 m ir nėra kamuolinių lietaus debesų

METAR: OERF 160400Z 30007KT CAVOK 30/05 Q1007 NOSIG

Laikas: 08:09 (05:09 UTC)

Prognozė

Ataskaita buvo paskelbta 6 valandos ir 9 minutes, ne 23:00 UTC
Prognozė galioja nuo 16 metu 00 UTC su 17 metu 06 UTC
Vėjas 6 kt iš Šiaurės
Matomumas: 7000 m
Tapsmas
nuo 16 metu 06 UTC su 16 metu 08 UTC
Vėjas 16 kt iš Šiaurės
Matomumas: 7000 m
Tikimybė 30% :
Laikinai
nuo 16 metu 08 UTC su 16 metu 18 UTC
Matomumas: 3000 m
Dulkes pustymas
Tapsmas
nuo 16 metu 20 UTC su 16 metu 22 UTC
Vėjas 6 kt iš Vakarų/Šiaurės Vakarų

TAF: OERF 152300Z 1600/1706 35006KT 7000 NSC BECMG 1606/1608 36016KT 7000 NSC PROB30 TEMPO 1608/1618 3000 BLDU BECMG 1620/1622 30006KT

Orai ataskaitas ir orų prognozės (METAR, TAF).

turimą stotys yra geltonos ir raudonos taškus žemėlapyje.

Perkelti pele per norėdami pamatyti stoties vardą.

Tada spustelėkite, norėdami matyti oro stebėjimo ir prognozės.

Norėdami pakeisti žemėlapį: spustelėkite ant žalios mygtukų su juodo kryžiaus žemyn,; žalią mygtuką su brūkšneliu, jei norite nutolinti; arba žalių rodyklių gretimoms žemėlapius.


METAR-TAF: